Terminal Aerodrome Forecast
Issued by NWS Shreveport, LA

Home | Current Version | Previous Version | Text Only | Print | Product List | Glossary On
Versions: 1 2 3 4 5 6 7 8 9 10 11 12
000
FTUS44 KSHV 022344
TAFGGG
TAF
KGGG 022344Z 0300/0324 08005KT P6SM SCT100 BKN250
     FM030300 06006KT 6SM -RA OVC100
     FM031000 08008KT 5SM RA OVC030
     FM031200 07010KT 4SM -RA OVC015
     FM031500 09013KT 4SM -RA BR OVC007=

USA.gov is the U.S. government's official web portal to all federal, state and local government web resources and services.